KDRI/DRI METAR and TAF weather

Enter ICAO airport designator
Station Type Date Time Source
KDRI METAR 2021/09/12 21:15 UTC NOAA

KDRI 122115Z AUTO 14008KT 30/22 A3009 RMK AO2 T02970221 PWINO


Station Type Date Time Source
KDRI Decoded METAR 2021/09/12 21:15 UTC NOAA

De Ridder, Beauregard Parish Airport, LA, United States (KDRI) 30-49-54N 093-20-23W
Sep 12, 2021 - 05:15 PM EDT / 2021.09.12 2115 UTC
Wind: from the SE (140 degrees) at 9 MPH (8 KT):0
Temperature: 85.5 F (29.7 C)
Heat index: 91.2 F (32.9 C):1
Dew Point: 71.8 F (22.1 C)
Relative Humidity: 63%
Pressure (altimeter): 30.09 in. Hg (1018 hPa)
ob: KDRI 122115Z AUTO 14008KT 30/22 A3009 RMK AO2 T02970221 PWINO
cycle: 21

Station Type Date Time Source
KDRI TAF UTC NOAA

Error!

Example: see airport list